sensor_id;sensor_type;location;lat;lon;timestamp;P1;durP1;ratioP1;P2;durP2;ratioP2
49440;SDS011;35317;51.978;6.296;2024-03-23T00:54:36;40.80;;;12.25;;
49440;SDS011;35317;51.978;6.296;2024-03-23T00:59:37;42.42;;;13.23;;
49440;SDS011;35317;51.978;6.296;2024-03-23T01:04:38;43.15;;;13.82;;
49440;SDS011;35317;51.978;6.296;2024-03-23T01:09:38;54.30;;;15.27;;
49440;SDS011;35317;51.978;6.296;2024-03-23T01:14:39;52.97;;;15.32;;
49440;SDS011;35317;51.978;6.296;2024-03-23T01:19:40;48.58;;;16.20;;
49440;SDS011;35317;51.978;6.296;2024-03-23T01:24:41;60.70;;;18.15;;
49440;SDS011;35317;51.978;6.296;2024-03-23T01:29:42;57.58;;;17.08;;
49440;SDS011;35317;51.978;6.296;2024-03-23T01:34:42;53.85;;;16.67;;
49440;SDS011;35317;51.978;6.296;2024-03-23T01:39:43;61.13;;;17.38;;
49440;SDS011;35317;51.978;6.296;2024-03-23T01:44:44;59.22;;;15.98;;
49440;SDS011;35317;51.978;6.296;2024-03-23T01:49:45;57.60;;;16.35;;
49440;SDS011;35317;51.978;6.296;2024-03-23T01:54:45;60.70;;;16.67;;
49440;SDS011;35317;51.978;6.296;2024-03-23T01:59:47;56.05;;;16.38;;
49440;SDS011;35317;51.978;6.296;2024-03-23T02:04:49;52.83;;;15.40;;
49440;SDS011;35317;51.978;6.296;2024-03-23T02:09:50;53.40;;;17.02;;
49440;SDS011;35317;51.978;6.296;2024-03-23T02:14:52;63.72;;;16.55;;
49440;SDS011;35317;51.978;6.296;2024-03-23T02:19:52;51.65;;;16.08;;
49440;SDS011;35317;51.978;6.296;2024-03-23T02:24:53;48.72;;;17.08;;
49440;SDS011;35317;51.978;6.296;2024-03-23T02:29:54;49.03;;;14.80;;
49440;SDS011;35317;51.978;6.296;2024-03-23T02:34:55;57.72;;;17.08;;
49440;SDS011;35317;51.978;6.296;2024-03-23T02:39:56;39.92;;;14.70;;
49440;SDS011;35317;51.978;6.296;2024-03-23T02:44:57;46.17;;;15.57;;
49440;SDS011;35317;51.978;6.296;2024-03-23T02:49:58;44.25;;;13.93;;
49440;SDS011;35317;51.978;6.296;2024-03-23T02:54:59;47.33;;;13.65;;
49440;SDS011;35317;51.978;6.296;2024-03-23T03:00:02;45.30;;;13.43;;
49440;SDS011;35317;51.978;6.296;2024-03-23T03:05:04;54.65;;;15.27;;
49440;SDS011;35317;51.978;6.296;2024-03-23T03:10:06;43.53;;;14.32;;
49440;SDS011;35317;51.978;6.296;2024-03-23T03:15:08;55.13;;;14.90;;
49440;SDS011;35317;51.978;6.296;2024-03-23T03:20:09;51.53;;;14.88;;
49440;SDS011;35317;51.978;6.296;2024-03-23T03:30:14;40.65;;;13.18;;
49440;SDS011;35317;51.978;6.296;2024-03-23T03:35:17;48.40;;;13.57;;
49440;SDS011;35317;51.978;6.296;2024-03-23T03:40:18;43.85;;;14.55;;
49440;SDS011;35317;51.978;6.296;2024-03-23T03:45:19;40.25;;;14.70;;
49440;SDS011;35317;51.978;6.296;2024-03-23T03:50:21;47.83;;;16.13;;
49440;SDS011;35317;51.978;6.296;2024-03-23T03:55:22;42.33;;;15.07;;
49440;SDS011;35317;51.978;6.296;2024-03-23T04:00:23;54.70;;;17.30;;
49440;SDS011;35317;51.978;6.296;2024-03-23T04:05:23;43.55;;;16.00;;
49440;SDS011;35317;51.978;6.296;2024-03-23T04:10:24;61.13;;;16.73;;
49440;SDS011;35317;51.978;6.296;2024-03-23T04:15:26;51.42;;;16.80;;
49440;SDS011;35317;51.978;6.296;2024-03-23T04:20:27;56.40;;;18.85;;
49440;SDS011;35317;51.978;6.296;2024-03-23T04:25:28;56.92;;;18.52;;
49440;SDS011;35317;51.978;6.296;2024-03-23T04:30:29;62.60;;;19.50;;
49440;SDS011;35317;51.978;6.296;2024-03-23T04:35:30;59.30;;;19.70;;
49440;SDS011;35317;51.978;6.296;2024-03-23T04:40:31;65.10;;;21.88;;
49440;SDS011;35317;51.978;6.296;2024-03-23T04:45:31;62.83;;;21.58;;
49440;SDS011;35317;51.978;6.296;2024-03-23T04:50:32;68.75;;;22.27;;
49440;SDS011;35317;51.978;6.296;2024-03-23T04:55:33;67.55;;;21.33;;
49440;SDS011;35317;51.978;6.296;2024-03-23T05:00:34;74.10;;;23.05;;
49440;SDS011;35317;51.978;6.296;2024-03-23T05:05:35;58.30;;;21.52;;
49440;SDS011;35317;51.978;6.296;2024-03-23T05:10:35;68.88;;;21.70;;
49440;SDS011;35317;51.978;6.296;2024-03-23T05:15:36;68.88;;;22.73;;
49440;SDS011;35317;51.978;6.296;2024-03-23T05:20:37;66.03;;;20.65;;
49440;SDS011;35317;51.978;6.296;2024-03-23T05:25:38;67.50;;;21.58;;
49440;SDS011;35317;51.978;6.296;2024-03-23T05:30:39;74.30;;;21.92;;
49440;SDS011;35317;51.978;6.296;2024-03-23T05:35:40;60.38;;;20.10;;
49440;SDS011;35317;51.978;6.296;2024-03-23T05:40:40;44.60;;;17.45;;
49440;SDS011;35317;51.978;6.296;2024-03-23T05:45:41;63.83;;;19.27;;
49440;SDS011;35317;51.978;6.296;2024-03-23T05:50:42;46.38;;;15.82;;
49440;SDS011;35317;51.978;6.296;2024-03-23T05:55:43;52.83;;;17.65;;
49440;SDS011;35317;51.978;6.296;2024-03-23T06:00:44;45.38;;;14.48;;
49440;SDS011;35317;51.978;6.296;2024-03-23T06:05:44;40.13;;;12.73;;
49440;SDS011;35317;51.978;6.296;2024-03-23T06:10:46;35.55;;;11.25;;
49440;SDS011;35317;51.978;6.296;2024-03-23T06:15:47;36.03;;;10.15;;
49440;SDS011;35317;51.978;6.296;2024-03-23T06:20:49;28.88;;;8.98;;
49440;SDS011;35317;51.978;6.296;2024-03-23T06:25:50;36.72;;;7.80;;
49440;SDS011;35317;51.978;6.296;2024-03-23T06:30:51;25.33;;;6.95;;
49440;SDS011;35317;51.978;6.296;2024-03-23T06:35:51;25.52;;;7.00;;
49440;SDS011;35317;51.978;6.296;2024-03-23T06:40:52;22.05;;;5.50;;
49440;SDS011;35317;51.978;6.296;2024-03-23T06:45:53;23.42;;;5.93;;
49440;SDS011;35317;51.978;6.296;2024-03-23T06:50:55;25.60;;;5.97;;
49440;SDS011;35317;51.978;6.296;2024-03-23T06:55:57;19.17;;;5.97;;
49440;SDS011;35317;51.978;6.296;2024-03-23T07:00:58;23.85;;;5.10;;
49440;SDS011;35317;51.978;6.296;2024-03-23T07:05:59;22.65;;;4.30;;
49440;SDS011;35317;51.978;6.296;2024-03-23T07:11:00;22.75;;;5.35;;
49440;SDS011;35317;51.978;6.296;2024-03-23T07:16:00;24.02;;;4.47;;
49440;SDS011;35317;51.978;6.296;2024-03-23T07:21:01;23.55;;;5.78;;
49440;SDS011;35317;51.978;6.296;2024-03-23T07:26:04;19.52;;;4.03;;
49440;SDS011;35317;51.978;6.296;2024-03-23T07:31:06;17.90;;;4.90;;
49440;SDS011;35317;51.978;6.296;2024-03-23T07:36:09;17.65;;;4.50;;
49440;SDS011;35317;51.978;6.296;2024-03-23T07:41:11;18.88;;;3.95;;
49440;SDS011;35317;51.978;6.296;2024-03-23T07:46:20;17.50;;;4.38;;
49440;SDS011;35317;51.978;6.296;2024-03-23T07:51:22;20.48;;;5.25;;
49440;SDS011;35317;51.978;6.296;2024-03-23T07:56:23;21.20;;;4.93;;
49440;SDS011;35317;51.978;6.296;2024-03-23T08:01:24;22.38;;;4.82;;
49440;SDS011;35317;51.978;6.296;2024-03-23T08:06:25;17.65;;;4.10;;
49440;SDS011;35317;51.978;6.296;2024-03-23T08:11:29;13.35;;;3.45;;
49440;SDS011;35317;51.978;6.296;2024-03-23T08:16:31;18.95;;;3.85;;
49440;SDS011;35317;51.978;6.296;2024-03-23T08:21:31;16.58;;;3.80;;
49440;SDS011;35317;51.978;6.296;2024-03-23T08:26:32;12.73;;;2.90;;
49440;SDS011;35317;51.978;6.296;2024-03-23T08:31:33;19.20;;;4.50;;
49440;SDS011;35317;51.978;6.296;2024-03-23T08:36:34;16.58;;;3.88;;
49440;SDS011;35317;51.978;6.296;2024-03-23T08:41:35;15.93;;;3.58;;
49440;SDS011;35317;51.978;6.296;2024-03-23T08:46:36;16.98;;;4.55;;
49440;SDS011;35317;51.978;6.296;2024-03-23T08:51:36;14.68;;;3.50;;
49440;SDS011;35317;51.978;6.296;2024-03-23T08:56:37;12.95;;;2.70;;
49440;SDS011;35317;51.978;6.296;2024-03-23T09:01:38;9.82;;;2.60;;
49440;SDS011;35317;51.978;6.296;2024-03-23T09:06:39;14.55;;;3.00;;
49440;SDS011;35317;51.978;6.296;2024-03-23T09:11:42;11.88;;;3.35;;
49440;SDS011;35317;51.978;6.296;2024-03-23T09:16:43;16.95;;;3.00;;
49440;SDS011;35317;51.978;6.296;2024-03-23T09:21:44;13.65;;;2.35;;
49440;SDS011;35317;51.978;6.296;2024-03-23T09:26:44;6.47;;;2.08;;
49440;SDS011;35317;51.978;6.296;2024-03-23T09:31:45;8.48;;;2.00;;
49440;SDS011;35317;51.978;6.296;2024-03-23T09:36:46;10.20;;;1.60;;
49440;SDS011;35317;51.978;6.296;2024-03-23T09:41:50;11.73;;;2.13;;
49440;SDS011;35317;51.978;6.296;2024-03-23T09:46:56;8.02;;;2.58;;
49440;SDS011;35317;51.978;6.296;2024-03-23T09:51:57;10.00;;;2.38;;
49440;SDS011;35317;51.978;6.296;2024-03-23T09:56:58;5.90;;;1.65;;
49440;SDS011;35317;51.978;6.296;2024-03-23T10:01:59;7.70;;;2.00;;
49440;SDS011;35317;51.978;6.296;2024-03-23T10:07:14;8.48;;;1.40;;
49440;SDS011;35317;51.978;6.296;2024-03-23T10:12:18;13.05;;;1.80;;
49440;SDS011;35317;51.978;6.296;2024-03-23T10:17:21;11.65;;;2.45;;
49440;SDS011;35317;51.978;6.296;2024-03-23T10:22:25;10.73;;;1.80;;
49440;SDS011;35317;51.978;6.296;2024-03-23T10:27:27;11.88;;;1.92;;
49440;SDS011;35317;51.978;6.296;2024-03-23T10:32:28;13.77;;;2.20;;
49440;SDS011;35317;51.978;6.296;2024-03-23T10:37:29;14.23;;;2.60;;
49440;SDS011;35317;51.978;6.296;2024-03-23T10:42:30;14.40;;;3.25;;
49440;SDS011;35317;51.978;6.296;2024-03-23T10:47:37;11.57;;;2.53;;
49440;SDS011;35317;51.978;6.296;2024-03-23T10:52:38;5.30;;;1.70;;
49440;SDS011;35317;51.978;6.296;2024-03-23T10:57:41;8.93;;;1.80;;
49440;SDS011;35317;51.978;6.296;2024-03-23T11:02:54;8.27;;;1.58;;
49440;SDS011;35317;51.978;6.296;2024-03-23T11:07:55;6.32;;;1.60;;
49440;SDS011;35317;51.978;6.296;2024-03-23T11:12:56;10.48;;;1.65;;
49440;SDS011;35317;51.978;6.296;2024-03-23T11:18:04;7.22;;;1.65;;
49440;SDS011;35317;51.978;6.296;2024-03-23T11:23:08;12.70;;;2.22;;
49440;SDS011;35317;51.978;6.296;2024-03-23T11:28:28;14.20;;;2.63;;
49440;SDS011;35317;51.978;6.296;2024-03-23T11:33:28;10.30;;;2.20;;
49440;SDS011;35317;51.978;6.296;2024-03-23T11:38:29;13.05;;;2.70;;
49440;SDS011;35317;51.978;6.296;2024-03-23T11:43:37;7.72;;;1.90;;
49440;SDS011;35317;51.978;6.296;2024-03-23T11:48:37;10.85;;;1.90;;
49440;SDS011;35317;51.978;6.296;2024-03-23T11:53:38;14.65;;;1.67;;
49440;SDS011;35317;51.978;6.296;2024-03-23T11:58:40;3.97;;;1.08;;
49440;SDS011;35317;51.978;6.296;2024-03-23T12:03:43;5.15;;;0.93;;
49440;SDS011;35317;51.978;6.296;2024-03-23T12:08:44;4.90;;;1.43;;
49440;SDS011;35317;51.978;6.296;2024-03-23T12:13:45;9.25;;;1.30;;
49440;SDS011;35317;51.978;6.296;2024-03-23T12:18:48;5.82;;;1.30;;
49440;SDS011;35317;51.978;6.296;2024-03-23T12:23:51;6.18;;;1.33;;
49440;SDS011;35317;51.978;6.296;2024-03-23T12:28:52;7.43;;;1.65;;
49440;SDS011;35317;51.978;6.296;2024-03-23T12:33:52;5.50;;;1.75;;
49440;SDS011;35317;51.978;6.296;2024-03-23T12:38:53;12.40;;;2.08;;
49440;SDS011;35317;51.978;6.296;2024-03-23T12:43:54;9.77;;;2.22;;
49440;SDS011;35317;51.978;6.296;2024-03-23T12:48:55;8.27;;;1.70;;
49440;SDS011;35317;51.978;6.296;2024-03-23T12:53:56;7.93;;;2.42;;
49440;SDS011;35317;51.978;6.296;2024-03-23T12:58:56;6.78;;;1.92;;
49440;SDS011;35317;51.978;6.296;2024-03-23T13:03:57;13.45;;;1.67;;
49440;SDS011;35317;51.978;6.296;2024-03-23T13:09:00;7.38;;;1.40;;
49440;SDS011;35317;51.978;6.296;2024-03-23T13:14:02;14.85;;;3.00;;
49440;SDS011;35317;51.978;6.296;2024-03-23T13:19:04;9.23;;;1.75;;
49440;SDS011;35317;51.978;6.296;2024-03-23T13:24:04;7.38;;;1.85;;
49440;SDS011;35317;51.978;6.296;2024-03-23T13:29:06;7.97;;;1.95;;
49440;SDS011;35317;51.978;6.296;2024-03-23T13:34:06;9.15;;;1.80;;
49440;SDS011;35317;51.978;6.296;2024-03-23T13:39:07;6.85;;;1.33;;
49440;SDS011;35317;51.978;6.296;2024-03-23T13:44:12;10.50;;;2.00;;
49440;SDS011;35317;51.978;6.296;2024-03-23T13:49:27;10.18;;;1.50;;
49440;SDS011;35317;51.978;6.296;2024-03-23T13:54:34;10.38;;;1.73;;
49440;SDS011;35317;51.978;6.296;2024-03-23T13:59:35;7.10;;;2.15;;
49440;SDS011;35317;51.978;6.296;2024-03-23T14:04:36;8.25;;;1.98;;
49440;SDS011;35317;51.978;6.296;2024-03-23T14:09:38;8.85;;;1.70;;
49440;SDS011;35317;51.978;6.296;2024-03-23T14:14:38;11.05;;;1.80;;
49440;SDS011;35317;51.978;6.296;2024-03-23T14:19:39;8.93;;;1.50;;
49440;SDS011;35317;51.978;6.296;2024-03-23T14:24:40;8.73;;;1.42;;
49440;SDS011;35317;51.978;6.296;2024-03-23T14:29:41;10.93;;;1.88;;
49440;SDS011;35317;51.978;6.296;2024-03-23T14:34:41;13.18;;;1.90;;
49440;SDS011;35317;51.978;6.296;2024-03-23T14:39:42;9.00;;;1.45;;
49440;SDS011;35317;51.978;6.296;2024-03-23T14:44:44;8.38;;;1.52;;
49440;SDS011;35317;51.978;6.296;2024-03-23T14:49:45;9.88;;;1.80;;
49440;SDS011;35317;51.978;6.296;2024-03-23T14:54:47;8.75;;;2.00;;
49440;SDS011;35317;51.978;6.296;2024-03-23T14:59:47;10.90;;;2.10;;
49440;SDS011;35317;51.978;6.296;2024-03-23T15:04:51;10.35;;;2.30;;
49440;SDS011;35317;51.978;6.296;2024-03-23T15:09:52;9.80;;;1.83;;
49440;SDS011;35317;51.978;6.296;2024-03-23T15:14:53;8.10;;;1.00;;
49440;SDS011;35317;51.978;6.296;2024-03-23T15:19:55;4.95;;;1.23;;
49440;SDS011;35317;51.978;6.296;2024-03-23T15:24:56;4.78;;;0.90;;
49440;SDS011;35317;51.978;6.296;2024-03-23T15:29:57;3.85;;;1.20;;
49440;SDS011;35317;51.978;6.296;2024-03-23T15:34:57;3.35;;;1.13;;
49440;SDS011;35317;51.978;6.296;2024-03-23T15:39:58;7.47;;;1.35;;
49440;SDS011;35317;51.978;6.296;2024-03-23T15:44:59;11.02;;;2.38;;
49440;SDS011;35317;51.978;6.296;2024-03-23T15:50:00;8.52;;;1.90;;
49440;SDS011;35317;51.978;6.296;2024-03-23T15:55:03;6.65;;;1.85;;
49440;SDS011;35317;51.978;6.296;2024-03-23T16:00:09;10.35;;;2.30;;
49440;SDS011;35317;51.978;6.296;2024-03-23T16:05:10;12.02;;;2.78;;
49440;SDS011;35317;51.978;6.296;2024-03-23T16:10:11;9.40;;;1.95;;
49440;SDS011;35317;51.978;6.296;2024-03-23T16:15:12;8.48;;;2.10;;
49440;SDS011;35317;51.978;6.296;2024-03-23T16:20:13;8.93;;;2.40;;
49440;SDS011;35317;51.978;6.296;2024-03-23T16:25:14;7.88;;;2.40;;
49440;SDS011;35317;51.978;6.296;2024-03-23T16:30:15;9.82;;;2.00;;
49440;SDS011;35317;51.978;6.296;2024-03-23T16:35:16;11.00;;;2.47;;
49440;SDS011;35317;51.978;6.296;2024-03-23T16:40:17;5.30;;;1.33;;
49440;SDS011;35317;51.978;6.296;2024-03-23T16:45:18;4.63;;;0.82;;
49440;SDS011;35317;51.978;6.296;2024-03-23T16:50:18;7.60;;;1.15;;
49440;SDS011;35317;51.978;6.296;2024-03-23T16:55:19;11.70;;;1.40;;
49440;SDS011;35317;51.978;6.296;2024-03-23T17:00:20;6.88;;;1.33;;
49440;SDS011;35317;51.978;6.296;2024-03-23T17:05:21;8.48;;;1.40;;
49440;SDS011;35317;51.978;6.296;2024-03-23T17:10:22;6.72;;;1.35;;
49440;SDS011;35317;51.978;6.296;2024-03-23T17:15:24;6.15;;;1.30;;
49440;SDS011;35317;51.978;6.296;2024-03-23T17:20:24;6.88;;;1.52;;
49440;SDS011;35317;51.978;6.296;2024-03-23T17:25:25;3.38;;;1.23;;
49440;SDS011;35317;51.978;6.296;2024-03-23T17:30:26;8.98;;;2.08;;
49440;SDS011;35317;51.978;6.296;2024-03-23T17:35:27;9.30;;;2.40;;
49440;SDS011;35317;51.978;6.296;2024-03-23T17:40:27;4.82;;;1.48;;
49440;SDS011;35317;51.978;6.296;2024-03-23T17:45:28;8.82;;;1.70;;
49440;SDS011;35317;51.978;6.296;2024-03-23T17:50:29;6.25;;;1.25;;
49440;SDS011;35317;51.978;6.296;2024-03-23T17:55:31;4.35;;;1.20;;
49440;SDS011;35317;51.978;6.296;2024-03-23T18:00:31;3.38;;;0.75;;
49440;SDS011;35317;51.978;6.296;2024-03-23T18:05:33;3.35;;;1.10;;
49440;SDS011;35317;51.978;6.296;2024-03-23T18:10:34;4.90;;;0.90;;
49440;SDS011;35317;51.978;6.296;2024-03-23T18:15:36;2.45;;;0.63;;
49440;SDS011;35317;51.978;6.296;2024-03-23T18:20:37;5.55;;;0.93;;
49440;SDS011;35317;51.978;6.296;2024-03-23T18:25:37;4.60;;;1.05;;
49440;SDS011;35317;51.978;6.296;2024-03-23T18:30:38;3.45;;;1.77;;
49440;SDS011;35317;51.978;6.296;2024-03-23T18:35:39;3.00;;;1.25;;
49440;SDS011;35317;51.978;6.296;2024-03-23T18:40:44;5.05;;;1.60;;
49440;SDS011;35317;51.978;6.296;2024-03-23T18:45:46;7.28;;;2.70;;
49440;SDS011;35317;51.978;6.296;2024-03-23T18:50:48;6.50;;;2.50;;
49440;SDS011;35317;51.978;6.296;2024-03-23T18:55:53;6.13;;;2.35;;
49440;SDS011;35317;51.978;6.296;2024-03-23T19:00:56;6.13;;;2.30;;
49440;SDS011;35317;51.978;6.296;2024-03-23T19:06:00;5.72;;;2.38;;
49440;SDS011;35317;51.978;6.296;2024-03-23T19:11:02;6.95;;;2.80;;
49440;SDS011;35317;51.978;6.296;2024-03-23T19:16:03;6.75;;;2.50;;
49440;SDS011;35317;51.978;6.296;2024-03-23T19:21:04;11.13;;;2.78;;
49440;SDS011;35317;51.978;6.296;2024-03-23T19:26:05;8.45;;;3.15;;
49440;SDS011;35317;51.978;6.296;2024-03-23T19:31:06;9.25;;;3.35;;
49440;SDS011;35317;51.978;6.296;2024-03-23T19:36:07;8.52;;;2.30;;
49440;SDS011;35317;51.978;6.296;2024-03-23T19:41:08;7.22;;;3.35;;
49440;SDS011;35317;51.978;6.296;2024-03-23T19:46:09;5.65;;;2.28;;
49440;SDS011;35317;51.978;6.296;2024-03-23T19:51:10;5.70;;;2.50;;
49440;SDS011;35317;51.978;6.296;2024-03-23T19:56:11;10.40;;;2.80;;
49440;SDS011;35317;51.978;6.296;2024-03-23T20:01:18;11.00;;;3.28;;
49440;SDS011;35317;51.978;6.296;2024-03-23T20:06:19;9.27;;;2.60;;
49440;SDS011;35317;51.978;6.296;2024-03-23T20:11:24;9.88;;;3.13;;
49440;SDS011;35317;51.978;6.296;2024-03-23T20:16:25;16.33;;;4.72;;
49440;SDS011;35317;51.978;6.296;2024-03-23T20:21:26;13.07;;;3.42;;
49440;SDS011;35317;51.978;6.296;2024-03-23T20:26:27;11.10;;;4.10;;
49440;SDS011;35317;51.978;6.296;2024-03-23T20:31:28;16.83;;;3.72;;
49440;SDS011;35317;51.978;6.296;2024-03-23T20:36:28;14.90;;;6.40;;
49440;SDS011;35317;51.978;6.296;2024-03-23T20:41:29;16.27;;;5.65;;
49440;SDS011;35317;51.978;6.296;2024-03-23T20:46:30;13.57;;;4.80;;
49440;SDS011;35317;51.978;6.296;2024-03-23T20:51:31;13.95;;;5.10;;
49440;SDS011;35317;51.978;6.296;2024-03-23T20:56:32;7.85;;;3.92;;
49440;SDS011;35317;51.978;6.296;2024-03-23T21:01:33;13.15;;;3.00;;
49440;SDS011;35317;51.978;6.296;2024-03-23T21:06:34;9.25;;;2.97;;
49440;SDS011;35317;51.978;6.296;2024-03-23T21:11:35;12.35;;;3.45;;
49440;SDS011;35317;51.978;6.296;2024-03-23T21:16:35;8.38;;;3.03;;
49440;SDS011;35317;51.978;6.296;2024-03-23T21:21:36;10.40;;;3.60;;
49440;SDS011;35317;51.978;6.296;2024-03-23T21:26:37;10.48;;;3.83;;
49440;SDS011;35317;51.978;6.296;2024-03-23T21:31:38;12.40;;;3.47;;
49440;SDS011;35317;51.978;6.296;2024-03-23T21:36:38;11.50;;;4.70;;
49440;SDS011;35317;51.978;6.296;2024-03-23T21:41:39;10.18;;;3.60;;
49440;SDS011;35317;51.978;6.296;2024-03-23T21:46:41;12.60;;;4.55;;
49440;SDS011;35317;51.978;6.296;2024-03-23T21:51:42;7.40;;;4.10;;
49440;SDS011;35317;51.978;6.296;2024-03-23T21:56:42;13.32;;;3.83;;
49440;SDS011;35317;51.978;6.296;2024-03-23T22:01:43;9.38;;;4.25;;
49440;SDS011;35317;51.978;6.296;2024-03-23T22:06:44;14.18;;;4.53;;
49440;SDS011;35317;51.978;6.296;2024-03-23T22:11:45;10.75;;;4.90;;
49440;SDS011;35317;51.978;6.296;2024-03-23T22:16:45;13.50;;;5.57;;
49440;SDS011;35317;51.978;6.296;2024-03-23T22:21:46;14.20;;;5.25;;
49440;SDS011;35317;51.978;6.296;2024-03-23T22:26:47;15.10;;;4.95;;
49440;SDS011;35317;51.978;6.296;2024-03-23T22:31:48;15.18;;;5.97;;
49440;SDS011;35317;51.978;6.296;2024-03-23T22:36:48;11.35;;;4.60;;
49440;SDS011;35317;51.978;6.296;2024-03-23T22:41:49;9.05;;;4.70;;
49440;SDS011;35317;51.978;6.296;2024-03-23T22:46:52;14.05;;;5.88;;
49440;SDS011;35317;51.978;6.296;2024-03-23T22:51:53;16.80;;;5.30;;
49440;SDS011;35317;51.978;6.296;2024-03-23T22:56:53;13.48;;;5.15;;
49440;SDS011;35317;51.978;6.296;2024-03-23T23:01:54;8.57;;;4.13;;
49440;SDS011;35317;51.978;6.296;2024-03-23T23:06:55;9.32;;;5.05;;
49440;SDS011;35317;51.978;6.296;2024-03-23T23:11:56;11.35;;;4.97;;
49440;SDS011;35317;51.978;6.296;2024-03-23T23:16:57;11.15;;;4.88;;
49440;SDS011;35317;51.978;6.296;2024-03-23T23:21:57;17.13;;;5.05;;
49440;SDS011;35317;51.978;6.296;2024-03-23T23:26:58;9.43;;;3.70;;
49440;SDS011;35317;51.978;6.296;2024-03-23T23:31:59;6.40;;;3.78;;
49440;SDS011;35317;51.978;6.296;2024-03-23T23:37:00;5.82;;;3.53;;
49440;SDS011;35317;51.978;6.296;2024-03-23T23:42:00;8.07;;;3.90;;
49440;SDS011;35317;51.978;6.296;2024-03-23T23:47:01;9.18;;;3.70;;
49440;SDS011;35317;51.978;6.296;2024-03-23T23:52:02;8.88;;;4.03;;
49440;SDS011;35317;51.978;6.296;2024-03-23T23:57:03;7.22;;;3.25;;
